Time;durP1;ratioP1;P1;durP2;ratioP2;P2;SDS_P1;SDS_P2;PMS_P1;PMS_P2;Temp;Humidity;BMP_temperature;BMP_pressure;BME280_temperature;BME280_humidity;BME280_pressure;Samples;Min_cycle;Max_cycle;Signal;HPM_P1;HPM_P2
2023/05/16 00:01:18;;;;;;;10.30;1.92;;;8.70;99.90;;;;;;6339406;22;20011;-95
2023/05/16 00:03:44;;;;;;;7.32;1.63;;;8.60;99.90;;;;;;6339749;22;20089;-95
2023/05/16 00:06:10;;;;;;;8.43;1.70;;;8.60;99.90;;;;;;6340038;22;20017;-94
2023/05/16 00:08:36;;;;;;;11.65;1.85;;;8.60;99.90;;;;;;6340275;22;20010;-96
2023/05/16 00:11:01;;;;;;;11.63;1.92;;;8.60;99.90;;;;;;6344224;22;20343;-96
2023/05/16 00:13:28;;;;;;;12.63;2.38;;;8.50;99.90;;;;;;6343091;22;20002;-95
2023/05/16 00:15:55;;;;;;;11.43;1.50;;;8.40;99.90;;;;;;6341645;22;20003;-94
2023/05/16 00:18:22;;;;;;;9.15;1.77;;;8.30;99.90;;;;;;6342563;22;20072;-95
2023/05/16 00:20:52;;;;;;;17.77;2.53;;;8.20;99.90;;;;;;6339726;22;20018;-95
2023/05/16 00:23:17;;;;;;;10.07;1.45;;;8.20;99.90;;;;;;6339459;22;20037;-96
2023/05/16 00:25:43;;;;;;;6.43;1.50;;;8.20;99.90;;;;;;6339662;22;20003;-96
2023/05/16 00:28:09;;;;;;;10.00;1.75;;;8.20;99.90;;;;;;6340524;22;20003;-95
2023/05/16 00:30:35;;;;;;;18.80;2.72;;;8.20;99.90;;;;;;6339848;22;19998;-95
2023/05/16 00:33:01;;;;;;;10.40;1.58;;;8.20;99.90;;;;;;6339852;22;20014;-95
2023/05/16 00:35:27;;;;;;;5.50;1.45;;;8.20;99.90;;;;;;6341062;22;20003;-95
2023/05/16 00:37:53;;;;;;;7.53;1.50;;;8.20;99.90;;;;;;6355222;22;19995;-94
2023/05/16 00:40:19;;;;;;;6.38;1.38;;;8.20;99.90;;;;;;6343502;22;20007;-94
2023/05/16 00:42:44;;;;;;;13.23;1.98;;;8.20;99.90;;;;;;6339406;22;20098;-96
2023/05/16 00:45:10;;;;;;;12.35;1.90;;;8.20;99.90;;;;;;6339460;22;19995;-95
2023/05/16 00:47:36;;;;;;;14.13;1.77;;;8.10;99.90;;;;;;6339945;22;20089;-96
2023/05/16 00:50:04;;;;;;;14.25;1.85;;;8.10;99.90;;;;;;6343040;22;20014;-95
2023/05/16 00:52:32;;;;;;;11.57;1.95;;;8.10;99.90;;;;;;6354367;22;20002;-94
2023/05/16 00:55:01;;;;;;;8.68;1.60;;;8.00;99.90;;;;;;6340276;22;20097;-96
2023/05/16 00:57:27;;;;;;;19.15;2.13;;;8.00;99.90;;;;;;6339829;22;20006;-94
2023/05/16 00:59:54;;;;;;;7.95;1.92;;;8.00;99.90;;;;;;6339316;22;20003;-94
2023/05/16 01:02:20;;;;;;;14.35;1.90;;;7.90;99.90;;;;;;6339567;22;20011;-96
2023/05/16 01:04:47;;;;;;;6.57;1.30;;;7.90;99.90;;;;;;6339472;22;20018;-96
2023/05/16 01:07:13;;;;;;;7.85;1.58;;;7.80;99.90;;;;;;6340098;22;20028;-94
2023/05/16 01:09:39;;;;;;;13.43;1.70;;;7.80;99.90;;;;;;6341335;22;20037;-95
2023/05/16 01:12:38;;;;;;;10.02;1.88;;;7.80;99.90;;;;;;6348345;22;20014;-95
2023/05/16 01:15:08;;;;;;;8.80;1.40;;;7.70;99.90;;;;;;6353343;22;20017;-94
2023/05/16 01:17:44;;;;;;;12.02;1.70;;;7.70;99.90;;;;;;6344902;22;20003;-95
2023/05/16 01:20:35;;;;;;;10.00;1.77;;;7.70;99.90;;;;;;6364632;22;19991;-95
2023/05/16 01:23:16;;;;;;;8.80;1.77;;;7.70;99.90;;;;;;6338987;22;20014;-94
2023/05/16 01:25:45;;;;;;;11.32;1.60;;;7.70;99.90;;;;;;6339122;22;19999;-95
2023/05/16 01:28:15;;;;;;;13.73;1.40;;;7.70;99.90;;;;;;6339181;22;20007;-96
2023/05/16 01:30:41;;;;;;;8.52;1.65;;;7.70;99.90;;;;;;6339005;22;20005;-96
2023/05/16 01:33:07;;;;;;;9.85;1.73;;;7.70;99.90;;;;;;6338735;22;20002;-96
2023/05/16 01:35:42;;;;;;;8.00;1.58;;;7.70;99.90;;;;;;6338522;22;20003;-94
2023/05/16 01:38:26;;;;;;;14.30;1.40;;;7.60;99.90;;;;;;6338860;22;20007;-95
2023/05/16 01:41:21;;;;;;;14.40;1.70;;;7.60;99.90;;;;;;6338849;22;20014;-96
2023/05/16 01:43:51;;;;;;;8.80;1.13;;;7.50;99.90;;;;;;6188612;23;20048;-95
2023/05/16 01:46:40;;;;;;;11.05;1.85;;;7.50;99.90;;;;;;6188796;23;20043;-94
2023/05/16 01:49:15;;;;;;;9.40;1.58;;;7.40;99.90;;;;;;6188848;23;20020;-95
2023/05/16 01:51:53;;;;;;;7.60;1.70;;;7.40;99.90;;;;;;6188865;23;20011;-96
2023/05/16 01:54:23;;;;;;;9.70;1.38;;;7.30;99.90;;;;;;6188253;23;20008;-95
2023/05/16 01:56:53;;;;;;;10.60;1.90;;;7.30;99.90;;;;;;6164485;23;20012;-94
2023/05/16 01:59:23;;;;;;;12.97;1.77;;;7.30;99.90;;;;;;6245745;23;20251;-96
2023/05/16 02:02:01;;;;;;;10.98;1.58;;;7.20;99.90;;;;;;6224106;23;20265;-95
2023/05/16 02:04:27;;;;;;;13.48;2.35;;;7.20;99.90;;;;;;6234821;23;20007;-95
2023/05/16 02:06:52;;;;;;;12.15;2.45;;;7.20;99.90;;;;;;6220697;23;20015;-95
2023/05/16 02:09:18;;;;;;;7.78;1.45;;;7.20;99.90;;;;;;6218904;23;20004;-95
2023/05/16 02:11:45;;;;;;;4.15;1.35;;;7.20;99.90;;;;;;6219004;23;20027;-95
2023/05/16 02:14:11;;;;;;;10.60;1.35;;;7.20;99.90;;;;;;6218718;23;20030;-96
2023/05/16 02:16:37;;;;;;;8.10;2.17;;;7.10;99.90;;;;;;6243810;23;20443;-95
2023/05/16 02:19:03;;;;;;;8.30;1.60;;;7.10;99.90;;;;;;6218787;23;20467;-95
2023/05/16 02:21:29;;;;;;;8.52;1.67;;;7.10;99.90;;;;;;6317947;22;20041;-95
2023/05/16 02:23:54;;;;;;;10.70;1.80;;;7.10;99.90;;;;;;6338156;22;20014;-95
2023/05/16 02:26:20;;;;;;;10.45;2.42;;;7.10;99.90;;;;;;6339683;22;19999;-96
2023/05/16 02:28:48;;;;;;;11.80;2.30;;;7.20;99.90;;;;;;6340684;22;20049;-95
2023/05/16 02:31:25;;;;;;;12.88;1.75;;;7.30;99.90;;;;;;6353589;22;20006;-95
2023/05/16 02:33:51;;;;;;;8.32;1.60;;;7.30;99.90;;;;;;6353220;22;20422;-95
2023/05/16 02:36:16;;;;;;;9.98;2.63;;;7.40;99.90;;;;;;6345748;22;19999;-96
2023/05/16 02:38:42;;;;;;;12.80;1.80;;;7.40;99.90;;;;;;6340265;22;20003;-95
2023/05/16 02:41:08;;;;;;;11.63;2.88;;;7.40;99.90;;;;;;6338858;22;20531;-96
2023/05/16 02:43:35;;;;;;;11.32;2.20;;;7.40;99.90;;;;;;6337884;22;20448;-96
2023/05/16 02:46:04;;;;;;;7.63;1.77;;;7.40;99.90;;;;;;6337647;22;20003;-95
2023/05/16 02:48:30;;;;;;;14.93;2.17;;;7.40;99.90;;;;;;6338505;22;20033;-95
2023/05/16 02:50:55;;;;;;;9.65;1.63;;;7.40;99.90;;;;;;6338037;22;20006;-93
2023/05/16 02:53:21;;;;;;;9.82;2.00;;;7.40;99.90;;;;;;6343152;22;20003;-94
2023/05/16 02:55:46;;;;;;;10.52;2.58;;;7.40;99.90;;;;;;6349802;22;20387;-95
2023/05/16 02:58:12;;;;;;;9.25;2.08;;;7.40;99.90;;;;;;6338776;22;20430;-95
2023/05/16 03:00:39;;;;;;;9.80;1.75;;;7.40;99.90;;;;;;6337804;22;20010;-95
2023/05/16 03:03:06;;;;;;;10.32;1.60;;;7.40;99.90;;;;;;6339237;22;20006;-93
2023/05/16 03:05:32;;;;;;;11.35;2.00;;;7.30;99.90;;;;;;6337771;22;20010;-95
2023/05/16 03:07:58;;;;;;;15.07;2.13;;;7.30;99.90;;;;;;6338261;22;20030;-94
2023/05/16 03:10:24;;;;;;;12.20;1.85;;;7.30;99.90;;;;;;6337711;22;20018;-95
2023/05/16 03:12:50;;;;;;;8.38;1.70;;;7.20;99.90;;;;;;6338158;22;20021;-96
2023/05/16 03:15:17;;;;;;;12.05;1.92;;;7.20;99.90;;;;;;6338008;22;20048;-96
2023/05/16 03:17:42;;;;;;;14.43;2.10;;;7.20;99.90;;;;;;6336756;22;20070;-96
2023/05/16 03:20:10;;;;;;;12.00;1.85;;;7.10;99.90;;;;;;6337266;22;20025;-95
2023/05/16 03:22:35;;;;;;;12.80;2.08;;;7.10;99.90;;;;;;6336823;22;20425;-96
2023/05/16 03:25:01;;;;;;;15.20;2.25;;;7.10;99.90;;;;;;6337997;22;20003;-96
2023/05/16 03:27:27;;;;;;;11.52;3.22;;;7.10;99.90;;;;;;6340625;22;20006;-96
2023/05/16 03:29:52;;;;;;;11.32;1.65;;;7.00;99.90;;;;;;6331177;22;20025;-94
2023/05/16 03:32:18;;;;;;;14.13;2.10;;;7.00;99.90;;;;;;6342825;22;20014;-93
2023/05/16 03:34:45;;;;;;;21.42;2.35;;;7.00;99.90;;;;;;6342955;22;20003;-94
2023/05/16 03:37:13;;;;;;;10.18;1.85;;;7.00;99.90;;;;;;6338115;22;20011;-95
2023/05/16 03:39:39;;;;;;;15.60;3.08;;;7.00;99.90;;;;;;6337123;22;20003;-94
2023/05/16 03:42:06;;;;;;;16.25;2.13;;;7.00;99.90;;;;;;6338828;22;20156;-95
2023/05/16 03:44:32;;;;;;;15.75;2.50;;;7.00;99.90;;;;;;6337000;22;20011;-95
2023/05/16 03:46:57;;;;;;;10.90;1.90;;;7.00;99.90;;;;;;6336835;22;20003;-94
2023/05/16 03:49:27;;;;;;;8.73;2.50;;;7.00;99.90;;;;;;6336951;22;20007;-96
2023/05/16 03:51:53;;;;;;;5.88;1.85;;;7.00;99.90;;;;;;6336932;22;20090;-95
2023/05/16 03:54:18;;;;;;;10.90;2.00;;;7.00;99.90;;;;;;6336521;22;20030;-95
2023/05/16 03:56:44;;;;;;;12.00;2.22;;;7.00;99.90;;;;;;6336964;22;20473;-95
2023/05/16 03:59:10;;;;;;;13.60;2.33;;;7.10;99.90;;;;;;6337881;22;20040;-95
2023/05/16 04:01:35;;;;;;;13.02;3.40;;;7.10;99.90;;;;;;6342531;22;20018;-93
2023/05/16 04:04:01;;;;;;;8.52;2.08;;;7.10;99.90;;;;;;6360812;22;19995;-94
2023/05/16 04:06:27;;;;;;;10.98;1.80;;;7.10;99.90;;;;;;6343838;22;20453;-95
2023/05/16 04:08:52;;;;;;;12.32;2.03;;;7.10;99.90;;;;;;6341572;22;20010;-95
2023/05/16 04:11:18;;;;;;;16.73;2.35;;;7.10;99.90;;;;;;6343231;22;20048;-95
2023/05/16 04:13:44;;;;;;;9.73;2.05;;;7.10;99.90;;;;;;6344994;22;20066;-93
2023/05/16 04:16:09;;;;;;;13.10;2.20;;;7.10;99.90;;;;;;6343203;22;20002;-95
2023/05/16 04:18:35;;;;;;;11.68;2.10;;;7.10;99.90;;;;;;6349789;22;19995;-94
2023/05/16 04:21:01;;;;;;;15.45;1.75;;;7.10;99.90;;;;;;6364681;22;20007;-95
2023/05/16 04:23:27;;;;;;;11.32;2.00;;;7.10;99.90;;;;;;6365788;22;20086;-95
2023/05/16 04:25:54;;;;;;;10.65;2.42;;;7.10;99.90;;;;;;6365949;22;19994;-96
2023/05/16 04:28:19;;;;;;;13.57;2.03;;;7.10;99.90;;;;;;6365828;22;20013;-96
2023/05/16 04:30:46;;;;;;;12.38;2.13;;;7.10;99.90;;;;;;6361257;22;20074;-96
2023/05/16 04:33:12;;;;;;;6.68;1.85;;;7.10;99.90;;;;;;6340662;22;20414;-94
2023/05/16 04:35:38;;;;;;;9.52;2.10;;;7.10;99.90;;;;;;6344382;22;20010;-96
2023/05/16 04:38:05;;;;;;;11.02;2.40;;;7.20;99.90;;;;;;6346907;22;20017;-95
2023/05/16 04:40:30;;;;;;;18.02;3.10;;;7.10;99.90;;;;;;6344047;22;20003;-96
2023/05/16 04:42:56;;;;;;;9.98;2.55;;;7.20;99.90;;;;;;6343445;22;20015;-96
2023/05/16 04:45:22;;;;;;;8.02;2.17;;;7.20;99.90;;;;;;6343792;22;20006;-94
2023/05/16 04:47:47;;;;;;;15.55;2.42;;;7.20;99.90;;;;;;6343424;22;20007;-94
2023/05/16 04:50:14;;;;;;;11.35;2.40;;;7.20;99.90;;;;;;6341689;22;19999;-95
2023/05/16 04:52:40;;;;;;;6.65;1.73;;;7.20;99.90;;;;;;6320147;22;20101;-94
2023/05/16 04:55:06;;;;;;;9.18;2.00;;;7.20;99.90;;;;;;6355683;22;20011;-94
2023/05/16 04:57:32;;;;;;;7.45;1.80;;;7.20;99.90;;;;;;6354241;22;19999;-93
2023/05/16 04:59:58;;;;;;;12.48;1.98;;;7.20;99.90;;;;;;6352146;22;20003;-93
2023/05/16 05:02:24;;;;;;;8.85;1.65;;;7.20;99.90;;;;;;6346840;22;20268;-93
2023/05/16 05:04:50;;;;;;;9.48;1.85;;;7.20;99.90;;;;;;6341962;22;20006;-95
2023/05/16 05:07:17;;;;;;;12.02;2.25;;;7.20;99.90;;;;;;6339154;22;20019;-95
2023/05/16 05:09:43;;;;;;;12.05;1.92;;;7.30;99.90;;;;;;6338854;22;19999;-95
2023/05/16 05:12:10;;;;;;;15.48;3.08;;;7.20;99.90;;;;;;6341652;22;20026;-94
2023/05/16 05:14:35;;;;;;;12.00;2.42;;;7.20;99.90;;;;;;6338339;22;20006;-94
2023/05/16 05:17:01;;;;;;;10.55;2.10;;;7.30;99.90;;;;;;6338276;22;20003;-94
2023/05/16 05:19:27;;;;;;;13.48;2.42;;;7.30;99.90;;;;;;6338304;22;20029;-95
2023/05/16 05:21:52;;;;;;;7.85;2.10;;;7.30;99.90;;;;;;6338142;22;20018;-93
2023/05/16 05:24:18;;;;;;;12.23;2.95;;;7.40;99.90;;;;;;6341041;22;20052;-94
2023/05/16 05:26:44;;;;;;;7.03;1.92;;;7.40;99.90;;;;;;6342993;22;20010;-94
2023/05/16 05:29:09;;;;;;;9.32;1.92;;;7.40;99.90;;;;;;6355180;22;20014;-95
2023/05/16 05:31:35;;;;;;;13.80;2.55;;;7.50;99.90;;;;;;6355557;22;20011;-94
2023/05/16 05:34:01;;;;;;;10.88;1.95;;;7.40;99.90;;;;;;6342209;22;20061;-93
2023/05/16 05:36:27;;;;;;;7.32;1.45;;;7.50;99.90;;;;;;6341207;22;20006;-94
2023/05/16 05:38:53;;;;;;;8.43;1.52;;;7.50;99.90;;;;;;6340733;22;20006;-95
2023/05/16 05:41:18;;;;;;;5.80;1.40;;;7.60;99.90;;;;;;6341288;22;20007;-95
2023/05/16 05:43:44;;;;;;;11.50;2.22;;;7.60;99.90;;;;;;6343350;22;20018;-94
2023/05/16 05:46:10;;;;;;;8.95;2.05;;;7.60;99.90;;;;;;6344017;22;20078;-94
2023/05/16 05:48:35;;;;;;;10.00;1.80;;;7.70;99.90;;;;;;6341273;22;20437;-95
2023/05/16 05:51:01;;;;;;;10.23;1.58;;;7.70;99.90;;;;;;6340545;22;20022;-95
2023/05/16 05:53:34;;;;;;;6.57;1.63;;;7.80;99.90;;;;;;6347556;22;20026;-94
2023/05/16 05:56:00;;;;;;;6.85;1.77;;;7.80;99.90;;;;;;6347015;22;20102;-95
2023/05/16 05:58:25;;;;;;;7.85;1.58;;;7.80;99.90;;;;;;6348968;22;20011;-94
2023/05/16 06:00:54;;;;;;;6.57;1.60;;;7.90;99.90;;;;;;6351612;22;19987;-94
2023/05/16 06:03:20;;;;;;;9.90;1.48;;;8.00;99.90;;;;;;6358415;22;20015;-95
2023/05/16 06:05:53;;;;;;;9.57;1.40;;;8.10;99.90;;;;;;6340883;22;20011;-95
2023/05/16 06:08:19;;;;;;;9.98;1.80;;;8.10;99.90;;;;;;6343739;22;19999;-94
2023/05/16 06:10:45;;;;;;;10.00;1.95;;;8.20;99.90;;;;;;6339716;22;20033;-95
2023/05/16 06:13:10;;;;;;;6.88;1.67;;;8.20;99.90;;;;;;6344727;22;20062;-95
2023/05/16 06:15:36;;;;;;;10.52;1.30;;;8.30;99.90;;;;;;6340897;22;20026;-96
2023/05/16 06:18:02;;;;;;;7.53;1.30;;;8.40;99.90;;;;;;6344487;22;20038;-95
2023/05/16 06:20:29;;;;;;;8.18;1.73;;;8.50;99.90;;;;;;6341663;22;20013;-96
2023/05/16 06:22:55;;;;;;;11.55;1.70;;;8.60;99.90;;;;;;6351205;22;20011;-96
2023/05/16 06:25:21;;;;;;;8.13;1.65;;;8.70;99.90;;;;;;6346441;22;19999;-93
2023/05/16 06:27:47;;;;;;;6.57;2.00;;;8.80;99.90;;;;;;6339057;22;20090;-94
2023/05/16 06:30:13;;;;;;;8.27;1.75;;;8.90;99.90;;;;;;6314135;22;20007;-94
2023/05/16 06:32:41;;;;;;;12.13;2.10;;;9.00;99.90;;;;;;6340210;22;20438;-94
2023/05/16 06:35:08;;;;;;;10.40;1.73;;;9.10;99.90;;;;;;6337740;22;20509;-95
2023/05/16 06:37:37;;;;;;;3.47;1.15;;;9.20;99.90;;;;;;6338410;22;20446;-95
2023/05/16 06:40:04;;;;;;;7.68;1.42;;;9.30;99.90;;;;;;6340596;22;20048;-94
2023/05/16 06:42:30;;;;;;;7.25;1.17;;;9.30;99.90;;;;;;6339994;22;20083;-94
2023/05/16 06:44:58;;;;;;;10.88;1.70;;;9.40;99.90;;;;;;6340702;22;20007;-94
2023/05/16 06:47:23;;;;;;;7.13;1.55;;;9.50;99.90;;;;;;6339089;22;20048;-94
2023/05/16 06:49:49;;;;;;;4.03;1.17;;;9.50;99.90;;;;;;6342504;22;20007;-96
2023/05/16 06:52:15;;;;;;;7.68;1.52;;;9.60;99.90;;;;;;6346240;22;20214;-95
2023/05/16 06:54:43;;;;;;;7.32;1.02;;;9.60;99.90;;;;;;6361200;22;20037;-96
2023/05/16 06:57:08;;;;;;;6.50;1.27;;;9.70;99.90;;;;;;6359176;22;20007;-96
2023/05/16 06:59:36;;;;;;;6.28;1.33;;;9.80;99.90;;;;;;6347577;22;20005;-95
2023/05/16 07:02:01;;;;;;;7.18;1.42;;;9.80;99.90;;;;;;6346365;22;20038;-95
2023/05/16 07:04:27;;;;;;;5.53;1.23;;;9.80;99.90;;;;;;6359520;22;19986;-96
2023/05/16 07:07:30;;;;;;;13.55;1.48;;;9.90;99.90;;;;;;6350024;22;20326;-96
2023/05/16 07:10:43;;;;;;;6.22;1.40;;;9.90;99.90;;;;;;6385799;22;20010;-96
2023/05/16 07:13:09;;;;;;;8.60;2.83;;;10.00;99.90;;;;;;6334335;22;20011;-94
2023/05/16 07:15:35;;;;;;;11.35;1.50;;;10.00;99.90;;;;;;6354230;22;20059;-96
2023/05/16 07:18:01;;;;;;;6.45;1.73;;;10.10;99.90;;;;;;6353539;22;19999;-96
2023/05/16 07:20:29;;;;;;;12.23;1.98;;;10.20;99.90;;;;;;6353288;22;20074;-96
2023/05/16 07:22:58;;;;;;;5.50;1.73;;;10.30;99.90;;;;;;6350073;22;20006;-96
2023/05/16 07:25:41;;;;;;;8.32;1.90;;;10.40;99.90;;;;;;6354428;22;20019;-95
2023/05/16 07:28:07;;;;;;;7.50;2.05;;;10.40;99.90;;;;;;6348992;22;20007;-96
2023/05/16 07:30:33;;;;;;;6.10;1.77;;;10.60;99.90;;;;;;6351156;22;20438;-95
2023/05/16 07:32:59;;;;;;;7.40;2.10;;;10.60;99.90;;;;;;6347265;22;19994;-95
2023/05/16 07:35:28;;;;;;;8.90;2.20;;;10.70;99.90;;;;;;6344707;22;20074;-95
2023/05/16 07:37:55;;;;;;;11.15;2.30;;;10.80;99.90;;;;;;6345494;22;20064;-96
2023/05/16 07:40:24;;;;;;;10.40;3.33;;;10.80;99.90;;;;;;6343975;22;20007;-95
2023/05/16 07:42:51;;;;;;;11.15;1.77;;;10.90;99.90;;;;;;6346996;22;20011;-95
2023/05/16 07:45:23;;;;;;;11.65;2.13;;;11.00;99.90;;;;;;6352086;22;20019;-96
2023/05/16 07:48:16;;;;;;;8.93;2.30;;;11.10;99.90;;;;;;6358516;22;20024;-95
2023/05/16 07:50:42;;;;;;;10.45;2.63;;;11.20;99.90;;;;;;6334095;22;20122;-96
2023/05/16 07:53:11;;;;;;;9.23;1.85;;;11.20;99.90;;;;;;6297467;22;20010;-95
2023/05/16 07:55:40;;;;;;;7.93;2.03;;;11.30;99.90;;;;;;6297523;22;20005;-96
2023/05/16 07:58:06;;;;;;;10.73;2.30;;;11.30;99.90;;;;;;6324929;22;20003;-95
2023/05/16 08:00:32;;;;;;;4.75;1.70;;;11.40;99.90;;;;;;6322258;22;20053;-95
2023/05/16 08:03:00;;;;;;;11.18;2.30;;;11.50;99.90;;;;;;6295380;22;20346;-96
2023/05/16 08:05:30;;;;;;;11.50;2.30;;;11.50;99.90;;;;;;6265158;22;20052;-95
2023/05/16 08:08:00;;;;;;;;;;;11.60;99.90;;;;;;6295571;22;20007;-95
2023/05/16 08:10:26;;;;;;;11.07;2.20;;;11.70;99.90;;;;;;6289166;22;19905;-95
2023/05/16 08:12:52;;;;;;;9.55;2.33;;;11.80;99.90;;;;;;6287625;22;20019;-96
2023/05/16 08:15:18;;;;;;;8.15;2.65;;;11.90;99.90;;;;;;6286751;22;20092;-94
2023/05/16 08:17:44;;;;;;;12.57;2.78;;;12.00;99.90;;;;;;6289763;22;20435;-96
2023/05/16 08:20:10;;;;;;;6.13;2.25;;;12.10;99.90;;;;;;6301742;22;19999;-95
2023/05/16 08:22:37;;;;;;;8.68;2.30;;;12.20;99.90;;;;;;6297266;22;20015;-95
2023/05/16 08:25:05;;;;;;;9.25;2.13;;;12.20;99.90;;;;;;6316489;22;20035;-96
2023/05/16 08:27:31;;;;;;;10.52;2.38;;;12.30;99.90;;;;;;6291183;22;19995;-96
2023/05/16 08:29:58;;;;;;;9.02;3.05;;;12.30;99.60;;;;;;6296211;22;19999;-96
2023/05/16 08:32:25;;;;;;;11.32;3.72;;;12.40;99.10;;;;;;6291467;22;20461;-96
2023/05/16 08:34:54;;;;;;;13.75;3.00;;;12.50;98.60;;;;;;6292104;22;20095;-96
2023/05/16 08:37:21;;;;;;;13.45;3.03;;;12.60;98.20;;;;;;6318889;22;20022;-96
2023/05/16 08:39:46;;;;;;;9.07;2.33;;;12.70;97.90;;;;;;6291464;22;20003;-96
2023/05/16 08:42:12;;;;;;;9.52;2.83;;;12.90;97.80;;;;;;6292722;22;20496;-95
2023/05/16 08:44:40;;;;;;;8.63;3.03;;;13.10;97.30;;;;;;6268936;22;20007;-95
2023/05/16 08:47:20;;;;;;;15.07;3.08;;;13.20;96.90;;;;;;6293557;22;20007;-96
2023/05/16 08:49:47;;;;;;;;;;;13.40;96.50;;;;;;6340045;22;20070;-96
2023/05/16 08:52:17;;;;;;;8.43;3.20;;;13.60;95.80;;;;;;6323395;22;19918;-96
2023/05/16 08:54:45;;;;;;;8.07;3.15;;;13.80;95.30;;;;;;6329563;22;20023;-96
2023/05/16 08:57:13;;;;;;;12.23;3.40;;;13.90;94.50;;;;;;6327014;22;19999;-96
2023/05/16 08:59:58;;;;;;;12.73;4.13;;;14.00;93.80;;;;;;6299099;22;19999;-95
2023/05/16 09:02:26;;;;;;;9.15;3.50;;;14.10;92.90;;;;;;6354097;22;20036;-95
2023/05/16 09:04:56;;;;;;;11.38;3.70;;;14.20;92.40;;;;;;6330938;22;20011;-96
2023/05/16 09:07:22;;;;;;;9.55;3.47;;;14.50;92.20;;;;;;6339045;22;20041;-96
2023/05/16 09:09:51;;;;;;;14.15;3.42;;;14.60;91.90;;;;;;6339766;22;19999;-96
2023/05/16 09:12:17;;;;;;;9.60;2.97;;;14.60;91.40;;;;;;6328858;22;20003;-95
2023/05/16 09:14:44;;;;;;;14.60;3.38;;;14.70;91.20;;;;;;6365579;22;19986;-95
2023/05/16 09:17:10;;;;;;;12.75;3.75;;;14.70;91.00;;;;;;6340205;22;20003;-96
2023/05/16 09:19:43;;;;;;;8.73;3.20;;;14.60;90.90;;;;;;6312335;22;19995;-95
2023/05/16 09:22:13;;;;;;;11.57;3.30;;;14.60;90.70;;;;;;6334043;22;20007;-96
2023/05/16 09:24:45;;;;;;;10.20;3.90;;;14.50;90.10;;;;;;6340904;22;20030;-96
2023/05/16 09:27:13;;;;;;;11.35;3.35;;;14.40;90.40;;;;;;6341020;22;20019;-95
2023/05/16 09:29:43;;;;;;;14.45;3.22;;;14.50;90.70;;;;;;6339552;22;20002;-96
2023/05/16 09:32:13;;;;;;;9.35;3.15;;;14.50;90.50;;;;;;6310870;22;20003;-96
2023/05/16 09:34:44;;;;;;;9.05;3.38;;;14.40;90.60;;;;;;6336266;22;20034;-96
2023/05/16 09:37:11;;;;;;;13.75;3.28;;;14.40;90.70;;;;;;6339118;22;19989;-95
2023/05/16 09:39:48;;;;;;;12.05;3.88;;;14.40;90.80;;;;;;6362288;22;20026;-95
2023/05/16 09:42:22;;;;;;;19.83;3.90;;;14.20;90.90;;;;;;6332332;22;20003;-95
2023/05/16 10:02:04;;;;;;;12.50;3.75;;;13.90;92.20;;;;;;6348478;22;20049;-95
2023/05/16 12:21:05;;;;;;;12.30;4.07;;;15.30;79.70;;;;;;6311066;22;20318;-96
2023/05/16 12:23:35;;;;;;;18.27;4.32;;;15.40;80.10;;;;;;6358647;22;20025;-95
2023/05/16 12:26:06;;;;;;;8.43;2.90;;;15.50;80.60;;;;;;6360892;22;19999;-94
2023/05/16 12:54:19;;;;;;;17.38;4.10;;;16.00;78.60;;;;;;6319372;22;20066;-95
2023/05/16 16:06:00;;;;;;;12.82;3.45;;;19.90;64.50;;;;;;5676852;23;20123;-96
2023/05/16 16:08:31;;;;;;;9.27;2.70;;;19.90;64.70;;;;;;4956663;29;20075;-96
2023/05/16 16:13:37;;;;;;;19.50;3.45;;;19.70;64.70;;;;;;5326422;23;20059;-95
2023/05/16 19:10:40;;;;;;;5.82;2.20;;;14.20;80.60;;;;;;5604505;23;20101;-95
2023/05/16 19:13:07;;;;;;;7.65;2.90;;;14.10;81.60;;;;;;4933882;29;20099;-92
2023/05/16 19:15:35;;;;;;;7.20;2.30;;;14.10;81.50;;;;;;4942111;29;20059;-94
2023/05/16 19:18:03;;;;;;;9.68;2.40;;;14.10;81.90;;;;;;4977029;23;20059;-94
2023/05/16 19:20:30;;;;;;;11.30;2.60;;;14.10;82.00;;;;;;5038162;23;20050;-93
